createdAt,value
2022-08-08T00:00:53.211Z,16.82
2022-08-08T00:03:32.228Z,16.85
2022-08-08T00:06:06.018Z,16.87
2022-08-08T00:08:53.336Z,16.84
2022-08-08T00:11:46.964Z,16.83
2022-08-08T00:14:57.239Z,16.86
2022-08-08T00:18:02.279Z,16.79
2022-08-08T00:20:49.582Z,16.74
2022-08-08T00:23:43.305Z,16.66
2022-08-08T00:26:26.136Z,16.61
2022-08-08T00:29:03.601Z,16.59
2022-08-08T00:32:20.846Z,16.55
2022-08-08T00:35:04.157Z,16.48
2022-08-08T00:37:48.325Z,16.45
2022-08-08T00:41:12.531Z,16.42
2022-08-08T00:43:46.112Z,16.40
2022-08-08T00:46:56.968Z,16.30
2022-08-08T00:49:59.594Z,16.17
2022-08-08T00:52:48.917Z,16.15
2022-08-08T00:55:54.679Z,16.16
2022-08-08T00:58:34.599Z,16.20
2022-08-08T01:01:37.756Z,16.23
2022-08-08T01:04:18.371Z,16.25
2022-08-08T01:06:57.338Z,16.21
2022-08-08T01:09:53.218Z,16.28
2022-08-08T01:12:29.487Z,16.30
2022-08-08T01:15:43.397Z,16.30
2022-08-08T01:18:50.647Z,16.32
2022-08-08T01:21:34.581Z,16.27
2022-08-08T01:24:13.839Z,16.31
2022-08-08T01:26:49.802Z,16.33
2022-08-08T01:29:35.732Z,16.34
2022-08-08T01:32:55.529Z,16.33
2022-08-08T01:35:44.143Z,16.34
2022-08-08T01:38:23.264Z,16.36
2022-08-08T01:41:15.866Z,16.32
2022-08-08T01:43:50.861Z,16.40
2022-08-08T01:46:47.274Z,16.41
2022-08-08T01:49:23.443Z,16.43
2022-08-08T01:52:51.125Z,16.36
2022-08-08T01:56:28.145Z,16.41
2022-08-08T01:58:38.575Z,16.41
2022-08-08T02:01:21.846Z,16.44
2022-08-08T02:04:12.926Z,16.44
2022-08-08T02:06:59.808Z,16.41
2022-08-08T02:10:01.728Z,16.40
2022-08-08T02:12:49.515Z,16.37
2022-08-08T02:15:38.484Z,16.39
2022-08-08T02:18:19.047Z,16.38
2022-08-08T02:21:20.134Z,16.34
2022-08-08T02:24:02.875Z,16.26
2022-08-08T02:26:39.569Z,16.25
2022-08-08T02:29:26.557Z,16.27
2022-08-08T02:32:22.905Z,16.32
2022-08-08T02:35:07.705Z,16.30
2022-08-08T02:38:09.754Z,16.21
2022-08-08T02:40:39.843Z,16.22
2022-08-08T02:44:37.275Z,16.20
2022-08-08T02:46:53.817Z,16.23
2022-08-08T02:49:35.840Z,16.25
2022-08-08T02:52:51.689Z,16.24
2022-08-08T02:55:38.171Z,16.24
2022-08-08T02:58:15.027Z,16.25
2022-08-08T03:00:57.360Z,16.21
2022-08-08T03:05:00.679Z,16.21
2022-08-08T03:06:48.330Z,16.23
2022-08-08T03:09:52.573Z,16.23
2022-08-08T03:12:36.776Z,16.25
2022-08-08T03:16:00.784Z,16.20
2022-08-08T03:18:59.726Z,16.21
2022-08-08T03:21:40.676Z,16.22
2022-08-08T03:24:08.320Z,16.23
2022-08-08T03:26:43.086Z,16.25
2022-08-08T03:29:20.973Z,16.28
2022-08-08T03:32:36.388Z,16.32
2022-08-08T03:35:10.254Z,16.36
2022-08-08T03:38:54.392Z,16.39
2022-08-08T03:40:29.369Z,16.42
2022-08-08T03:42:58.802Z,16.48
2022-08-08T03:46:06.015Z,16.51
2022-08-08T03:49:09.547Z,16.53
2022-08-08T03:51:19.492Z,16.57
2022-08-08T03:54:05.292Z,16.58
2022-08-08T03:56:34.646Z,16.59
2022-08-08T03:59:02.689Z,16.61
2022-08-08T04:02:13.234Z,16.61
2022-08-08T04:04:30.469Z,16.63
2022-08-08T04:07:01.044Z,16.65
2022-08-08T04:09:58.786Z,16.66
2022-08-08T04:12:16.185Z,16.68
2022-08-08T04:14:45.355Z,16.67
2022-08-08T04:17:15.597Z,16.69
2022-08-08T04:19:59.644Z,16.70
2022-08-08T04:22:30.450Z,16.73
2022-08-08T04:24:58.300Z,16.75
2022-08-08T04:27:42.859Z,16.75
2022-08-08T04:30:17.725Z,16.76
2022-08-08T04:32:48.040Z,16.73
2022-08-08T04:35:17.273Z,16.70
2022-08-08T04:37:44.671Z,16.71
2022-08-08T04:40:13.061Z,16.73
2022-08-08T04:42:46.847Z,16.73
2022-08-08T04:45:27.748Z,16.74
2022-08-08T04:48:00.119Z,16.77
2022-08-08T04:50:34.376Z,16.79
2022-08-08T04:53:13.869Z,16.85
2022-08-08T04:55:56.243Z,16.89
2022-08-08T04:58:23.776Z,16.92
2022-08-08T05:00:52.185Z,16.94
2022-08-08T05:04:10.215Z,17.00
2022-08-08T05:06:13.573Z,17.05
2022-08-08T05:08:52.023Z,17.12
2022-08-08T05:11:22.580Z,17.18
2022-08-08T05:13:58.126Z,17.23
2022-08-08T05:16:55.153Z,17.31
2022-08-08T05:20:11.230Z,17.36
2022-08-08T05:22:06.005Z,17.42
2022-08-08T05:24:34.703Z,17.45
2022-08-08T05:27:05.042Z,17.51
2022-08-08T05:29:31.970Z,17.54
2022-08-08T05:32:09.136Z,17.60
2022-08-08T05:34:42.189Z,17.65
2022-08-08T05:37:18.568Z,17.71
2022-08-08T05:39:54.548Z,17.74
2022-08-08T05:42:43.735Z,17.77
2022-08-08T05:45:25.159Z,17.86
2022-08-08T05:48:01.641Z,17.93
2022-08-08T05:50:36.601Z,17.98
2022-08-08T05:53:53.863Z,18.10
2022-08-08T05:56:09.840Z,18.20
2022-08-08T05:58:57.381Z,18.25
2022-08-08T06:01:52.586Z,18.30
2022-08-08T06:04:24.321Z,18.35
2022-08-08T06:06:53.677Z,18.42
2022-08-08T06:09:58.300Z,18.52
2022-08-08T06:12:18.471Z,18.57
2022-08-08T06:14:57.907Z,18.59
2022-08-08T06:17:50.201Z,18.63
2022-08-08T06:20:14.152Z,18.64
2022-08-08T06:22:43.208Z,18.67
2022-08-08T06:25:10.469Z,18.65
2022-08-08T06:27:48.342Z,18.67
2022-08-08T06:30:20.269Z,18.70
2022-08-08T06:33:00.938Z,18.75
2022-08-08T06:36:06.336Z,18.78
2022-08-08T06:38:27.795Z,18.80
2022-08-08T06:41:05.592Z,18.86
2022-08-08T06:43:37.586Z,18.93
2022-08-08T06:46:09.106Z,18.98
2022-08-08T06:48:39.664Z,19.04
2022-08-08T06:51:11.171Z,19.14
2022-08-08T06:53:40.080Z,19.25
2022-08-08T06:56:23.172Z,19.37
2022-08-08T06:58:50.162Z,19.47
2022-08-08T07:02:16.720Z,19.59
2022-08-08T07:04:37.034Z,19.68
2022-08-08T07:07:00.646Z,19.79
2022-08-08T07:09:56.575Z,19.92
2022-08-08T07:13:13.810Z,19.91
2022-08-08T07:16:04.422Z,19.97
2022-08-08T07:18:43.379Z,20.05
2022-08-08T07:21:19.291Z,20.20
2022-08-08T07:24:03.558Z,20.37
2022-08-08T07:26:37.915Z,20.54
2022-08-08T07:29:08.281Z,20.73
2022-08-08T07:31:40.602Z,20.93
2022-08-08T07:34:10.850Z,21.00
2022-08-08T07:36:50.445Z,20.99
2022-08-08T07:39:55.909Z,20.99
2022-08-08T07:42:18.853Z,21.21
2022-08-08T07:44:48.013Z,21.41
2022-08-08T07:47:18.426Z,21.44
2022-08-08T07:49:57.556Z,21.23
2022-08-08T07:52:27.335Z,21.11
2022-08-08T07:55:01.002Z,21.11
2022-08-08T07:57:58.785Z,21.11
2022-08-08T08:00:33.514Z,21.10
2022-08-08T08:03:23.268Z,21.18
2022-08-08T08:05:53.143Z,21.37
2022-08-08T08:08:26.374Z,21.51
2022-08-08T08:10:57.507Z,21.61
2022-08-08T08:13:42.627Z,21.71
2022-08-08T08:16:28.923Z,21.84
2022-08-08T08:19:09.177Z,21.96
2022-08-08T08:21:52.501Z,22.03
2022-08-08T08:24:30.404Z,22.14
2022-08-08T08:26:58.739Z,22.30
2022-08-08T08:29:28.029Z,22.51
2022-08-08T08:31:57.823Z,22.71
2022-08-08T08:34:31.828Z,22.94
2022-08-08T08:37:00.799Z,23.12
2022-08-08T08:40:00.314Z,23.23
2022-08-08T08:42:31.999Z,23.16
2022-08-08T08:45:21.527Z,23.15
2022-08-08T08:47:55.053Z,23.05
2022-08-08T08:50:33.975Z,23.11
2022-08-08T08:53:27.481Z,23.04
2022-08-08T08:56:01.077Z,23.04
2022-08-08T08:58:42.240Z,23.21
2022-08-08T09:01:13.521Z,23.35
2022-08-08T09:03:50.653Z,23.49
2022-08-08T09:06:34.115Z,23.51
2022-08-08T09:09:26.487Z,23.54
2022-08-08T09:12:08.046Z,23.71
2022-08-08T09:14:42.295Z,23.85
2022-08-08T09:17:18.271Z,23.76
2022-08-08T09:21:59.246Z,23.65
2022-08-08T09:22:35.794Z,23.57
2022-08-08T09:25:05.742Z,23.65
2022-08-08T09:27:56.894Z,23.66
2022-08-08T09:30:26.804Z,23.70
2022-08-08T09:33:54.293Z,23.76
2022-08-08T09:35:49.559Z,23.88
2022-08-08T09:38:53.666Z,23.89
2022-08-08T09:42:14.173Z,23.97
2022-08-08T09:44:34.385Z,23.87
2022-08-08T09:47:26.028Z,23.63
2022-08-08T09:50:01.486Z,23.41
2022-08-08T09:52:56.267Z,23.41
2022-08-08T09:56:03.199Z,23.54
2022-08-08T09:58:28.002Z,23.69
2022-08-08T10:01:14.310Z,23.92
2022-08-08T10:04:02.464Z,24.19
2022-08-08T10:06:32.597Z,24.40
2022-08-08T10:09:02.935Z,24.76
2022-08-08T10:12:27.747Z,25.16
2022-08-08T10:14:27.683Z,25.46
2022-08-08T10:17:57.478Z,25.75
2022-08-08T10:20:00.057Z,25.95
2022-08-08T10:22:29.706Z,26.39
2022-08-08T10:25:04.884Z,26.82
2022-08-08T10:27:43.299Z,27.01
2022-08-08T10:30:16.208Z,27.02
2022-08-08T10:33:00.763Z,26.75
2022-08-08T10:36:08.314Z,26.57
2022-08-08T10:38:20.561Z,26.58
2022-08-08T10:40:53.268Z,26.72
2022-08-08T10:43:23.037Z,26.82
2022-08-08T10:45:57.043Z,26.91
2022-08-08T10:48:56.726Z,27.13
2022-08-08T10:51:31.679Z,27.63
2022-08-08T10:54:21.344Z,27.80
2022-08-08T10:57:04.238Z,28.04
2022-08-08T10:59:39.669Z,28.53
2022-08-08T11:02:09.182Z,28.65
2022-08-08T11:04:53.298Z,28.32
2022-08-08T11:08:31.565Z,27.92
2022-08-08T11:10:28.766Z,27.73
2022-08-08T11:13:28.194Z,27.62
2022-08-08T11:15:52.363Z,27.47
2022-08-08T11:18:30.497Z,27.45
2022-08-08T11:21:09.019Z,27.30
2022-08-08T11:23:41.946Z,27.07
2022-08-08T11:26:12.778Z,27.01
2022-08-08T11:28:47.253Z,27.00
2022-08-08T11:31:20.881Z,27.19
2022-08-08T11:34:01.968Z,27.25
2022-08-08T11:36:36.978Z,27.08
2022-08-08T11:39:05.819Z,26.95
2022-08-08T11:41:38.996Z,26.89
2022-08-08T11:44:10.978Z,26.86
2022-08-08T11:46:40.009Z,26.64
2022-08-08T11:49:17.232Z,26.48
2022-08-08T11:51:50.045Z,26.36
2022-08-08T11:54:34.271Z,25.86
2022-08-08T11:57:17.281Z,25.48
2022-08-08T12:00:01.562Z,25.22
2022-08-08T12:02:33.697Z,25.14
2022-08-08T12:05:12.251Z,25.04
2022-08-08T12:07:51.112Z,24.90
2022-08-08T12:10:23.498Z,24.80
2022-08-08T12:13:04.204Z,24.66
2022-08-08T12:15:41.872Z,24.53
2022-08-08T12:18:24.681Z,24.46
2022-08-08T12:20:59.480Z,24.40
2022-08-08T12:23:43.173Z,24.33
2022-08-08T12:26:27.721Z,24.35
2022-08-08T12:29:21.295Z,24.39
2022-08-08T12:32:02.679Z,24.47
2022-08-08T12:34:36.391Z,24.43
2022-08-08T12:37:08.875Z,24.46
2022-08-08T12:40:01.396Z,24.40
2022-08-08T12:42:26.583Z,24.31
2022-08-08T12:45:58.873Z,24.14
2022-08-08T12:48:09.681Z,24.02
2022-08-08T12:50:48.438Z,23.91
2022-08-08T12:53:30.002Z,23.76
2022-08-08T12:56:18.040Z,23.64
2022-08-08T12:58:49.733Z,23.56
2022-08-08T13:01:16.927Z,23.45
2022-08-08T13:03:52.207Z,23.41
2022-08-08T13:06:20.555Z,23.38
2022-08-08T13:08:53.841Z,23.34
2022-08-08T13:11:28.669Z,23.35
2022-08-08T13:14:15.929Z,23.35
2022-08-08T13:16:43.907Z,23.39
2022-08-08T13:19:17.949Z,23.41
2022-08-08T13:21:53.229Z,23.41
2022-08-08T13:24:42.659Z,23.40
2022-08-08T13:27:18.643Z,23.39
2022-08-08T13:30:00.349Z,23.38
2022-08-08T13:32:30.690Z,23.42
2022-08-08T13:34:59.462Z,23.38
2022-08-08T13:38:05.050Z,23.42
2022-08-08T13:40:26.566Z,23.48
2022-08-08T13:42:55.574Z,23.47
2022-08-08T13:45:24.292Z,23.42
2022-08-08T13:47:58.615Z,23.31
2022-08-08T13:50:37.057Z,23.35
2022-08-08T13:53:24.440Z,23.34
2022-08-08T13:56:02.742Z,23.31
2022-08-08T13:58:30.346Z,23.29
2022-08-08T14:00:57.677Z,23.28
2022-08-08T14:03:53.921Z,23.27
2022-08-08T14:06:32.418Z,23.23
2022-08-08T14:09:00.774Z,23.19
2022-08-08T14:11:47.915Z,23.17
2022-08-08T14:14:20.701Z,23.11
2022-08-08T14:16:52.506Z,23.06
2022-08-08T14:19:57.887Z,23.00
2022-08-08T14:22:18.528Z,22.95
2022-08-08T14:25:00.178Z,22.96
2022-08-08T14:27:34.815Z,22.98
2022-08-08T14:30:18.095Z,23.00
2022-08-08T14:32:54.841Z,22.97
2022-08-08T14:35:35.446Z,22.97
2022-08-08T14:38:34.440Z,22.93
2022-08-08T14:40:59.226Z,22.91
2022-08-08T14:44:02.335Z,22.92
2022-08-08T14:46:18.504Z,22.88
2022-08-08T14:48:52.568Z,22.87
2022-08-08T14:51:47.063Z,22.89
2022-08-08T14:54:16.227Z,22.92
2022-08-08T14:56:57.287Z,22.96
2022-08-08T14:59:44.665Z,22.98
2022-08-08T15:02:15.377Z,22.98
2022-08-08T15:04:43.419Z,22.98
2022-08-08T15:07:22.646Z,22.99
2022-08-08T15:09:51.653Z,22.88
2022-08-08T15:12:27.226Z,22.95
2022-08-08T15:14:55.583Z,22.96
2022-08-08T15:17:23.373Z,22.95
2022-08-08T15:19:51.732Z,22.93
2022-08-08T15:22:33.055Z,22.92
2022-08-08T15:25:01.200Z,22.94
2022-08-08T15:28:04.079Z,22.94
2022-08-08T15:30:15.540Z,22.93
2022-08-08T15:32:46.691Z,22.93
2022-08-08T15:35:16.153Z,22.96
2022-08-08T15:37:43.196Z,22.98
2022-08-08T15:40:11.348Z,23.00
2022-08-08T15:42:47.580Z,23.03
2022-08-08T15:45:16.818Z,23.03
2022-08-08T15:48:05.294Z,23.06
2022-08-08T15:50:54.579Z,23.08
2022-08-08T15:53:23.822Z,23.10
2022-08-08T15:55:53.256Z,23.11
2022-08-08T15:58:20.147Z,23.10
2022-08-08T16:00:55.616Z,23.07
2022-08-08T16:03:22.473Z,23.01
2022-08-08T16:06:00.961Z,22.96
2022-08-08T16:08:28.619Z,22.94
2022-08-08T16:13:10.233Z,22.90
2022-08-08T16:13:45.139Z,22.90
2022-08-08T16:16:18.019Z,22.90
2022-08-08T16:18:56.996Z,22.88
2022-08-08T16:21:31.517Z,22.84
2022-08-08T16:24:04.913Z,22.84
2022-08-08T16:26:35.747Z,22.84
2022-08-08T16:29:37.302Z,22.80
2022-08-08T16:32:13.517Z,22.77
2022-08-08T16:34:48.158Z,22.72
2022-08-08T16:37:16.167Z,22.68
2022-08-08T16:39:59.676Z,22.60
2022-08-08T16:42:30.265Z,22.54
2022-08-08T16:44:59.520Z,22.47
2022-08-08T16:47:40.590Z,22.41
2022-08-08T16:50:14.008Z,22.33
2022-08-08T16:55:02.368Z,22.29
2022-08-08T16:55:55.776Z,22.24
2022-08-08T16:58:20.751Z,22.17
2022-08-08T17:00:48.792Z,22.12
2022-08-08T17:03:25.533Z,22.06
2022-08-08T17:06:36.421Z,21.99
2022-08-08T17:08:54.527Z,21.92
2022-08-08T17:11:21.533Z,21.85
2022-08-08T17:14:00.759Z,21.79
2022-08-08T17:16:29.391Z,21.73
2022-08-08T17:18:56.760Z,21.70
2022-08-08T17:21:26.013Z,21.66
2022-08-08T17:24:01.947Z,21.64
2022-08-08T17:26:30.784Z,21.54
2022-08-08T17:29:04.533Z,21.52
2022-08-08T17:31:43.428Z,21.46
2022-08-08T17:34:48.865Z,21.41
2022-08-08T17:37:09.047Z,21.35
2022-08-08T17:40:04.740Z,21.30
2022-08-08T17:42:25.281Z,21.25
2022-08-08T17:44:53.103Z,21.25
2022-08-08T17:47:23.736Z,21.23
2022-08-08T17:50:01.187Z,21.18
2022-08-08T17:52:34.328Z,21.14
2022-08-08T17:55:05.790Z,21.11
2022-08-08T17:57:50.406Z,21.08
2022-08-08T18:00:25.982Z,21.05
2022-08-08T18:03:08.657Z,21.04
2022-08-08T18:05:48.243Z,20.98
2022-08-08T18:08:25.144Z,20.96
2022-08-08T18:11:17.080Z,20.94
2022-08-08T18:13:47.808Z,20.93
2022-08-08T18:16:20.184Z,20.89
2022-08-08T18:18:52.829Z,20.89
2022-08-08T18:21:34.668Z,20.87
2022-08-08T18:24:17.606Z,20.84
2022-08-08T18:26:54.509Z,20.83
2022-08-08T18:29:33.259Z,20.80
2022-08-08T18:32:04.009Z,20.79
2022-08-08T18:34:33.009Z,20.77
2022-08-08T18:37:06.395Z,20.73
2022-08-08T18:39:36.634Z,20.71
2022-08-08T18:42:06.704Z,20.67
2022-08-08T18:44:41.988Z,20.65
2022-08-08T18:47:08.934Z,20.62
2022-08-08T18:49:57.235Z,20.58
2022-08-08T18:52:24.208Z,20.53
2022-08-08T18:54:59.610Z,20.45
2022-08-08T18:57:40.780Z,20.41
2022-08-08T19:00:16.941Z,20.36
2022-08-08T19:02:56.019Z,20.31
2022-08-08T19:05:32.376Z,20.31
2022-08-08T19:08:25.157Z,20.30
2022-08-08T19:10:59.468Z,20.31
2022-08-08T19:13:52.860Z,20.29
2022-08-08T19:16:19.480Z,20.24
2022-08-08T19:18:54.491Z,20.25
2022-08-08T19:21:30.291Z,20.22
2022-08-08T19:23:58.763Z,20.20
2022-08-08T19:26:30.155Z,20.17
2022-08-08T19:28:59.177Z,20.13
2022-08-08T19:31:31.405Z,20.10
2022-08-08T19:34:29.911Z,20.06
2022-08-08T19:36:58.445Z,20.04
2022-08-08T19:39:30.726Z,20.01
2022-08-08T19:42:04.675Z,19.98
2022-08-08T19:44:43.158Z,19.92
2022-08-08T19:47:14.066Z,19.88
2022-08-08T19:49:43.400Z,19.82
2022-08-08T19:52:34.629Z,19.81
2022-08-08T19:55:12.812Z,19.76
2022-08-08T19:57:43.805Z,19.72
2022-08-08T20:00:29.935Z,19.71
2022-08-08T20:02:58.188Z,19.67
2022-08-08T20:06:14.400Z,19.65
2022-08-08T20:08:29.419Z,19.63
2022-08-08T20:11:00.177Z,19.60
2022-08-08T20:14:11.806Z,19.51
2022-08-08T20:16:15.503Z,19.41
2022-08-08T20:18:53.072Z,19.34
2022-08-08T20:21:25.786Z,19.27
2022-08-08T20:23:57.651Z,19.20
2022-08-08T20:26:30.095Z,19.11
2022-08-08T20:29:03.107Z,19.09
2022-08-08T20:32:07.475Z,19.05
2022-08-08T20:34:30.678Z,19.01
2022-08-08T20:37:00.691Z,18.93
2022-08-08T20:39:39.699Z,18.87
2022-08-08T20:42:15.733Z,18.82
2022-08-08T20:44:42.912Z,18.77
2022-08-08T20:47:23.016Z,18.70
2022-08-08T20:49:58.089Z,18.68
2022-08-08T20:52:27.653Z,18.68
2022-08-08T20:54:58.447Z,18.67
2022-08-08T20:57:27.152Z,18.66
2022-08-08T20:59:56.126Z,18.68
2022-08-08T21:02:26.143Z,18.65
2022-08-08T21:05:01.212Z,18.63
2022-08-08T21:07:31.147Z,18.60
2022-08-08T21:10:15.080Z,18.55
2022-08-08T21:12:46.050Z,18.52
2022-08-08T21:15:16.746Z,18.48
2022-08-08T21:18:01.369Z,18.44
2022-08-08T21:20:34.180Z,18.41
2022-08-08T21:23:02.737Z,18.40
2022-08-08T21:25:36.079Z,18.40
2022-08-08T21:28:14.482Z,18.41
2022-08-08T21:30:45.158Z,18.41
2022-08-08T21:33:16.319Z,18.42
2022-08-08T21:36:17.740Z,18.40
2022-08-08T21:38:30.190Z,18.42
2022-08-08T21:40:58.045Z,18.43
2022-08-08T21:43:33.431Z,18.47
2022-08-08T21:48:20.287Z,18.48
2022-08-08T21:48:54.545Z,18.47
2022-08-08T21:54:17.532Z,18.50
2022-08-08T21:54:34.917Z,18.49
2022-08-08T21:57:00.950Z,18.52
2022-08-08T22:00:01.776Z,18.53
2022-08-08T22:02:16.151Z,18.57
2022-08-08T22:04:46.655Z,18.58
2022-08-08T22:07:16.293Z,18.61
2022-08-08T22:09:43.759Z,18.60
2022-08-08T22:12:16.843Z,18.59
2022-08-08T22:14:47.425Z,18.58
2022-08-08T22:17:18.390Z,18.57
2022-08-08T22:20:10.957Z,18.55
2022-08-08T22:22:38.105Z,18.53
2022-08-08T22:25:17.743Z,18.52
2022-08-08T22:28:02.852Z,18.49
2022-08-08T22:30:41.146Z,18.49
2022-08-08T22:33:22.247Z,18.49
2022-08-08T22:36:04.098Z,18.49
2022-08-08T22:38:39.357Z,18.41
2022-08-08T22:41:21.239Z,18.30
2022-08-08T22:44:02.303Z,18.16
2022-08-08T22:46:33.157Z,18.10
2022-08-08T22:49:00.667Z,18.07
2022-08-08T22:51:29.090Z,18.06
2022-08-08T22:54:30.811Z,18.07
2022-08-08T22:56:43.715Z,18.10
2022-08-08T22:59:18.619Z,18.04
2022-08-08T23:02:02.789Z,18.02
2022-08-08T23:04:32.459Z,17.99
2022-08-08T23:07:02.772Z,17.98
2022-08-08T23:09:31.181Z,18.00
2022-08-08T23:12:27.796Z,18.00
2022-08-08T23:14:59.917Z,18.00
2022-08-08T23:17:46.832Z,18.03
2022-08-08T23:20:21.154Z,17.96
2022-08-08T23:22:55.172Z,17.85
2022-08-08T23:25:22.148Z,17.79
2022-08-08T23:27:49.264Z,17.76
2022-08-08T23:30:22.554Z,17.75
2022-08-08T23:32:50.861Z,17.75
2022-08-08T23:35:18.984Z,17.75
2022-08-08T23:38:03.189Z,17.74
2022-08-08T23:40:31.040Z,17.64
2022-08-08T23:42:58.095Z,17.54
2022-08-08T23:48:59.779Z,17.42
2022-08-08T23:49:03.022Z,17.48
2022-08-08T23:51:03.580Z,17.38
2022-08-08T23:54:05.855Z,17.41
2022-08-08T23:56:23.898Z,17.41
2022-08-08T23:59:00.049Z,17.44
